sensor_id;sensor_type;location;lat;lon;timestamp;P1;durP1;ratioP1;P2;durP2;ratioP2
69310;SDS011;56430;48.154;16.458;2024-02-15T00:01:25;6.07;;;1.90;;
69310;SDS011;56430;48.154;16.458;2024-02-15T00:03:52;4.93;;;1.73;;
69310;SDS011;56430;48.154;16.458;2024-02-15T00:06:19;6.72;;;1.80;;
69310;SDS011;56430;48.154;16.458;2024-02-15T00:08:46;5.20;;;1.60;;
69310;SDS011;56430;48.154;16.458;2024-02-15T00:11:15;5.40;;;2.00;;
69310;SDS011;56430;48.154;16.458;2024-02-15T00:13:42;5.65;;;1.60;;
69310;SDS011;56430;48.154;16.458;2024-02-15T00:16:12;3.57;;;1.40;;
69310;SDS011;56430;48.154;16.458;2024-02-15T00:18:43;5.82;;;1.90;;
69310;SDS011;56430;48.154;16.458;2024-02-15T00:21:10;6.85;;;1.85;;
69310;SDS011;56430;48.154;16.458;2024-02-15T00:23:38;4.70;;;1.60;;
69310;SDS011;56430;48.154;16.458;2024-02-15T00:26:05;4.00;;;1.30;;
69310;SDS011;56430;48.154;16.458;2024-02-15T00:28:34;4.60;;;1.60;;
69310;SDS011;56430;48.154;16.458;2024-02-15T00:31:01;5.45;;;1.92;;
69310;SDS011;56430;48.154;16.458;2024-02-15T00:33:28;5.65;;;1.75;;
69310;SDS011;56430;48.154;16.458;2024-02-15T00:35:55;4.85;;;1.70;;
69310;SDS011;56430;48.154;16.458;2024-02-15T00:38:22;6.97;;;1.83;;
69310;SDS011;56430;48.154;16.458;2024-02-15T00:40:49;9.67;;;2.83;;
69310;SDS011;56430;48.154;16.458;2024-02-15T00:43:16;5.25;;;1.83;;
69310;SDS011;56430;48.154;16.458;2024-02-15T00:45:46;6.20;;;1.95;;
69310;SDS011;56430;48.154;16.458;2024-02-15T00:48:13;5.55;;;1.80;;
69310;SDS011;56430;48.154;16.458;2024-02-15T00:50:43;6.13;;;2.13;;
69310;SDS011;56430;48.154;16.458;2024-02-15T00:53:10;6.47;;;2.00;;
69310;SDS011;56430;48.154;16.458;2024-02-15T00:55:38;5.32;;;2.03;;
69310;SDS011;56430;48.154;16.458;2024-02-15T00:58:05;7.75;;;1.88;;
69310;SDS011;56430;48.154;16.458;2024-02-15T01:00:32;9.65;;;2.38;;
69310;SDS011;56430;48.154;16.458;2024-02-15T01:03:01;5.70;;;2.20;;
69310;SDS011;56430;48.154;16.458;2024-02-15T01:05:28;6.20;;;2.10;;
69310;SDS011;56430;48.154;16.458;2024-02-15T01:07:56;9.27;;;2.20;;
69310;SDS011;56430;48.154;16.458;2024-02-15T01:10:23;5.82;;;2.28;;
69310;SDS011;56430;48.154;16.458;2024-02-15T01:12:50;7.60;;;2.25;;
69310;SDS011;56430;48.154;16.458;2024-02-15T01:15:17;9.00;;;2.42;;
69310;SDS011;56430;48.154;16.458;2024-02-15T01:17:45;6.30;;;1.77;;
69310;SDS011;56430;48.154;16.458;2024-02-15T01:20:14;4.90;;;1.58;;
69310;SDS011;56430;48.154;16.458;2024-02-15T01:22:43;6.60;;;1.98;;
69310;SDS011;56430;48.154;16.458;2024-02-15T01:25:10;6.65;;;1.80;;
69310;SDS011;56430;48.154;16.458;2024-02-15T01:27:38;4.80;;;1.75;;
69310;SDS011;56430;48.154;16.458;2024-02-15T01:30:05;8.03;;;1.87;;
69310;SDS011;56430;48.154;16.458;2024-02-15T01:32:33;3.88;;;1.50;;
69310;SDS011;56430;48.154;16.458;2024-02-15T01:35:01;5.28;;;1.92;;
69310;SDS011;56430;48.154;16.458;2024-02-15T01:37:30;5.78;;;1.67;;
69310;SDS011;56430;48.154;16.458;2024-02-15T01:39:57;4.50;;;1.83;;
69310;SDS011;56430;48.154;16.458;2024-02-15T01:42:24;6.47;;;2.00;;
69310;SDS011;56430;48.154;16.458;2024-02-15T01:44:51;5.43;;;1.70;;
69310;SDS011;56430;48.154;16.458;2024-02-15T01:47:18;5.25;;;1.75;;
69310;SDS011;56430;48.154;16.458;2024-02-15T01:49:47;5.90;;;1.77;;
69310;SDS011;56430;48.154;16.458;2024-02-15T01:52:15;5.85;;;1.50;;
69310;SDS011;56430;48.154;16.458;2024-02-15T01:54:45;5.73;;;1.37;;
69310;SDS011;56430;48.154;16.458;2024-02-15T01:57:12;4.68;;;1.33;;
69310;SDS011;56430;48.154;16.458;2024-02-15T01:59:40;3.50;;;1.30;;
69310;SDS011;56430;48.154;16.458;2024-02-15T02:02:08;5.57;;;1.73;;
69310;SDS011;56430;48.154;16.458;2024-02-15T02:04:36;4.93;;;1.55;;
69310;SDS011;56430;48.154;16.458;2024-02-15T02:07:04;3.80;;;1.33;;
69310;SDS011;56430;48.154;16.458;2024-02-15T02:09:31;4.63;;;1.20;;
69310;SDS011;56430;48.154;16.458;2024-02-15T02:12:00;5.40;;;1.40;;
69310;SDS011;56430;48.154;16.458;2024-02-15T02:14:27;4.47;;;1.30;;
69310;SDS011;56430;48.154;16.458;2024-02-15T02:17:01;5.18;;;1.40;;
69310;SDS011;56430;48.154;16.458;2024-02-15T02:19:37;4.40;;;1.33;;
69310;SDS011;56430;48.154;16.458;2024-02-15T02:22:05;4.82;;;1.50;;
69310;SDS011;56430;48.154;16.458;2024-02-15T02:24:36;4.22;;;1.48;;
69310;SDS011;56430;48.154;16.458;2024-02-15T02:27:09;4.82;;;1.30;;
69310;SDS011;56430;48.154;16.458;2024-02-15T02:29:41;4.90;;;1.60;;
69310;SDS011;56430;48.154;16.458;2024-02-15T02:32:11;4.73;;;1.30;;
69310;SDS011;56430;48.154;16.458;2024-02-15T02:34:38;6.78;;;1.75;;
69310;SDS011;56430;48.154;16.458;2024-02-15T02:37:06;5.90;;;1.50;;
69310;SDS011;56430;48.154;16.458;2024-02-15T02:39:33;5.25;;;1.58;;
69310;SDS011;56430;48.154;16.458;2024-02-15T02:42:01;5.35;;;1.92;;
69310;SDS011;56430;48.154;16.458;2024-02-15T02:44:30;5.70;;;2.10;;
69310;SDS011;56430;48.154;16.458;2024-02-15T02:46:57;6.88;;;1.80;;
69310;SDS011;56430;48.154;16.458;2024-02-15T02:49:24;5.35;;;2.17;;
69310;SDS011;56430;48.154;16.458;2024-02-15T02:51:51;8.27;;;2.67;;
69310;SDS011;56430;48.154;16.458;2024-02-15T02:54:18;7.45;;;2.72;;
69310;SDS011;56430;48.154;16.458;2024-02-15T02:56:45;6.80;;;2.27;;
69310;SDS011;56430;48.154;16.458;2024-02-15T02:59:13;6.85;;;2.80;;
69310;SDS011;56430;48.154;16.458;2024-02-15T03:01:43;5.82;;;2.15;;
69310;SDS011;56430;48.154;16.458;2024-02-15T03:04:10;6.10;;;2.17;;
69310;SDS011;56430;48.154;16.458;2024-02-15T03:06:42;5.78;;;2.40;;
69310;SDS011;56430;48.154;16.458;2024-02-15T03:09:10;6.40;;;2.27;;
69310;SDS011;56430;48.154;16.458;2024-02-15T03:11:40;9.05;;;3.00;;
69310;SDS011;56430;48.154;16.458;2024-02-15T03:14:08;6.95;;;3.33;;
69310;SDS011;56430;48.154;16.458;2024-02-15T03:16:36;11.93;;;3.50;;
69310;SDS011;56430;48.154;16.458;2024-02-15T03:19:05;9.43;;;3.72;;
69310;SDS011;56430;48.154;16.458;2024-02-15T03:21:35;9.77;;;3.67;;
69310;SDS011;56430;48.154;16.458;2024-02-15T03:24:02;9.23;;;3.90;;
69310;SDS011;56430;48.154;16.458;2024-02-15T03:26:29;9.07;;;3.88;;
69310;SDS011;56430;48.154;16.458;2024-02-15T03:29:02;8.30;;;3.60;;
69310;SDS011;56430;48.154;16.458;2024-02-15T03:31:29;8.32;;;3.65;;
69310;SDS011;56430;48.154;16.458;2024-02-15T03:33:57;8.47;;;4.00;;
69310;SDS011;56430;48.154;16.458;2024-02-15T03:36:26;8.18;;;3.97;;
69310;SDS011;56430;48.154;16.458;2024-02-15T03:38:54;10.88;;;4.78;;
69310;SDS011;56430;48.154;16.458;2024-02-15T03:41:22;8.13;;;3.50;;
69310;SDS011;56430;48.154;16.458;2024-02-15T03:43:49;10.05;;;4.10;;
69310;SDS011;56430;48.154;16.458;2024-02-15T03:46:17;9.07;;;4.10;;
69310;SDS011;56430;48.154;16.458;2024-02-15T03:48:44;9.43;;;4.05;;
69310;SDS011;56430;48.154;16.458;2024-02-15T03:51:11;11.73;;;4.07;;
69310;SDS011;56430;48.154;16.458;2024-02-15T03:53:44;10.30;;;3.90;;
69310;SDS011;56430;48.154;16.458;2024-02-15T03:56:11;9.60;;;3.90;;
69310;SDS011;56430;48.154;16.458;2024-02-15T03:58:38;9.10;;;4.77;;
69310;SDS011;56430;48.154;16.458;2024-02-15T04:01:05;10.68;;;4.00;;
69310;SDS011;56430;48.154;16.458;2024-02-15T04:03:35;8.95;;;3.95;;
69310;SDS011;56430;48.154;16.458;2024-02-15T04:06:02;8.57;;;4.00;;
69310;SDS011;56430;48.154;16.458;2024-02-15T04:08:30;9.50;;;4.28;;
69310;SDS011;56430;48.154;16.458;2024-02-15T04:10:58;12.47;;;4.10;;
69310;SDS011;56430;48.154;16.458;2024-02-15T04:13:26;8.70;;;3.90;;
69310;SDS011;56430;48.154;16.458;2024-02-15T04:15:53;9.30;;;3.90;;
69310;SDS011;56430;48.154;16.458;2024-02-15T04:18:20;12.68;;;4.07;;
69310;SDS011;56430;48.154;16.458;2024-02-15T04:20:47;12.10;;;4.20;;
69310;SDS011;56430;48.154;16.458;2024-02-15T04:23:15;8.33;;;3.53;;
69310;SDS011;56430;48.154;16.458;2024-02-15T04:25:42;7.57;;;3.63;;
69310;SDS011;56430;48.154;16.458;2024-02-15T04:28:17;11.40;;;3.92;;
69310;SDS011;56430;48.154;16.458;2024-02-15T04:30:45;8.48;;;3.80;;
69310;SDS011;56430;48.154;16.458;2024-02-15T04:33:14;9.18;;;3.45;;
69310;SDS011;56430;48.154;16.458;2024-02-15T04:35:42;7.73;;;3.60;;
69310;SDS011;56430;48.154;16.458;2024-02-15T04:38:10;9.10;;;3.20;;
69310;SDS011;56430;48.154;16.458;2024-02-15T04:40:37;9.07;;;3.35;;
69310;SDS011;56430;48.154;16.458;2024-02-15T04:43:05;9.18;;;3.20;;
69310;SDS011;56430;48.154;16.458;2024-02-15T04:45:34;8.75;;;3.30;;
69310;SDS011;56430;48.154;16.458;2024-02-15T04:48:02;9.50;;;3.47;;
69310;SDS011;56430;48.154;16.458;2024-02-15T04:50:29;8.98;;;3.80;;
69310;SDS011;56430;48.154;16.458;2024-02-15T04:52:56;11.38;;;3.88;;
69310;SDS011;56430;48.154;16.458;2024-02-15T04:55:23;8.07;;;3.33;;
69310;SDS011;56430;48.154;16.458;2024-02-15T04:57:52;7.93;;;3.20;;
69310;SDS011;56430;48.154;16.458;2024-02-15T05:00:23;7.87;;;3.70;;
69310;SDS011;56430;48.154;16.458;2024-02-15T05:02:52;8.93;;;3.85;;
69310;SDS011;56430;48.154;16.458;2024-02-15T05:05:20;9.20;;;3.58;;
69310;SDS011;56430;48.154;16.458;2024-02-15T05:07:47;8.90;;;3.45;;
69310;SDS011;56430;48.154;16.458;2024-02-15T05:10:16;8.95;;;3.75;;
69310;SDS011;56430;48.154;16.458;2024-02-15T05:12:43;9.87;;;3.47;;
69310;SDS011;56430;48.154;16.458;2024-02-15T05:15:13;8.52;;;3.72;;
69310;SDS011;56430;48.154;16.458;2024-02-15T05:17:43;8.55;;;3.63;;
69310;SDS011;56430;48.154;16.458;2024-02-15T05:20:11;7.57;;;3.20;;
69310;SDS011;56430;48.154;16.458;2024-02-15T05:22:39;6.15;;;2.92;;
69310;SDS011;56430;48.154;16.458;2024-02-15T05:25:09;9.10;;;3.17;;
69310;SDS011;56430;48.154;16.458;2024-02-15T05:27:38;6.60;;;2.90;;
69310;SDS011;56430;48.154;16.458;2024-02-15T05:30:05;7.55;;;3.08;;
69310;SDS011;56430;48.154;16.458;2024-02-15T05:32:33;9.30;;;3.40;;
69310;SDS011;56430;48.154;16.458;2024-02-15T05:35:08;8.15;;;3.15;;
69310;SDS011;56430;48.154;16.458;2024-02-15T05:37:36;7.23;;;2.87;;
69310;SDS011;56430;48.154;16.458;2024-02-15T05:40:04;7.97;;;2.83;;
69310;SDS011;56430;48.154;16.458;2024-02-15T05:42:33;7.78;;;3.47;;
69310;SDS011;56430;48.154;16.458;2024-02-15T05:45:14;7.55;;;3.00;;
69310;SDS011;56430;48.154;16.458;2024-02-15T05:47:55;10.25;;;3.30;;
69310;SDS011;56430;48.154;16.458;2024-02-15T05:50:22;6.53;;;2.70;;
69310;SDS011;56430;48.154;16.458;2024-02-15T05:52:51;9.93;;;3.50;;
69310;SDS011;56430;48.154;16.458;2024-02-15T05:55:20;18.88;;;4.13;;
69310;SDS011;56430;48.154;16.458;2024-02-15T05:57:48;8.48;;;3.40;;
69310;SDS011;56430;48.154;16.458;2024-02-15T06:00:15;8.43;;;3.40;;
69310;SDS011;56430;48.154;16.458;2024-02-15T06:02:43;9.23;;;3.50;;
69310;SDS011;56430;48.154;16.458;2024-02-15T06:05:10;7.25;;;3.15;;
69310;SDS011;56430;48.154;16.458;2024-02-15T06:07:37;8.45;;;3.85;;
69310;SDS011;56430;48.154;16.458;2024-02-15T06:10:07;7.55;;;3.20;;
69310;SDS011;56430;48.154;16.458;2024-02-15T06:12:34;7.47;;;3.33;;
69310;SDS011;56430;48.154;16.458;2024-02-15T06:15:03;9.13;;;3.60;;
69310;SDS011;56430;48.154;16.458;2024-02-15T06:17:30;10.70;;;3.28;;
69310;SDS011;56430;48.154;16.458;2024-02-15T06:19:58;8.40;;;2.92;;
69310;SDS011;56430;48.154;16.458;2024-02-15T06:22:25;6.68;;;3.25;;
69310;SDS011;56430;48.154;16.458;2024-02-15T06:24:52;6.72;;;3.08;;
69310;SDS011;56430;48.154;16.458;2024-02-15T06:27:21;9.17;;;2.93;;
69310;SDS011;56430;48.154;16.458;2024-02-15T06:29:49;6.53;;;2.70;;
69310;SDS011;56430;48.154;16.458;2024-02-15T06:32:34;6.28;;;2.83;;
69310;SDS011;56430;48.154;16.458;2024-02-15T06:35:19;8.93;;;3.08;;
69310;SDS011;56430;48.154;16.458;2024-02-15T06:38:03;7.70;;;2.90;;
69310;SDS011;56430;48.154;16.458;2024-02-15T06:40:47;9.40;;;3.03;;
69310;SDS011;56430;48.154;16.458;2024-02-15T06:43:16;9.95;;;3.28;;
69310;SDS011;56430;48.154;16.458;2024-02-15T06:45:43;8.70;;;2.78;;
69310;SDS011;56430;48.154;16.458;2024-02-15T06:48:12;10.70;;;3.30;;
69310;SDS011;56430;48.154;16.458;2024-02-15T06:50:39;11.35;;;3.67;;
69310;SDS011;56430;48.154;16.458;2024-02-15T06:53:06;8.27;;;3.10;;
69310;SDS011;56430;48.154;16.458;2024-02-15T06:55:34;11.27;;;3.53;;
69310;SDS011;56430;48.154;16.458;2024-02-15T06:58:02;9.63;;;3.22;;
69310;SDS011;56430;48.154;16.458;2024-02-15T07:00:32;10.70;;;3.40;;
69310;SDS011;56430;48.154;16.458;2024-02-15T07:03:00;7.25;;;3.33;;
69310;SDS011;56430;48.154;16.458;2024-02-15T07:05:27;9.50;;;3.03;;
69310;SDS011;56430;48.154;16.458;2024-02-15T07:07:54;8.27;;;2.97;;
69310;SDS011;56430;48.154;16.458;2024-02-15T07:10:22;7.78;;;2.50;;
69310;SDS011;56430;48.154;16.458;2024-02-15T07:12:49;7.95;;;3.00;;
69310;SDS011;56430;48.154;16.458;2024-02-15T07:15:16;7.63;;;2.97;;
69310;SDS011;56430;48.154;16.458;2024-02-15T07:17:45;9.50;;;3.00;;
69310;SDS011;56430;48.154;16.458;2024-02-15T07:20:12;7.50;;;2.92;;
69310;SDS011;56430;48.154;16.458;2024-02-15T07:22:42;9.15;;;2.78;;
69310;SDS011;56430;48.154;16.458;2024-02-15T07:25:11;6.15;;;2.15;;
69310;SDS011;56430;48.154;16.458;2024-02-15T07:27:38;4.63;;;2.13;;
69310;SDS011;56430;48.154;16.458;2024-02-15T07:30:05;5.10;;;2.00;;
69310;SDS011;56430;48.154;16.458;2024-02-15T07:32:34;6.55;;;2.00;;
69310;SDS011;56430;48.154;16.458;2024-02-15T07:35:04;5.63;;;2.17;;
69310;SDS011;56430;48.154;16.458;2024-02-15T07:37:33;5.25;;;2.33;;
69310;SDS011;56430;48.154;16.458;2024-02-15T07:40:00;5.88;;;2.20;;
69310;SDS011;56430;48.154;16.458;2024-02-15T07:42:29;5.77;;;2.40;;
69310;SDS011;56430;48.154;16.458;2024-02-15T07:44:56;7.53;;;2.33;;
69310;SDS011;56430;48.154;16.458;2024-02-15T07:47:23;6.20;;;2.30;;
69310;SDS011;56430;48.154;16.458;2024-02-15T07:49:55;5.97;;;2.20;;
69310;SDS011;56430;48.154;16.458;2024-02-15T07:52:23;4.80;;;2.05;;
69310;SDS011;56430;48.154;16.458;2024-02-15T07:54:50;6.83;;;2.40;;
69310;SDS011;56430;48.154;16.458;2024-02-15T07:57:18;8.80;;;2.35;;
69310;SDS011;56430;48.154;16.458;2024-02-15T07:59:46;6.72;;;2.60;;
69310;SDS011;56430;48.154;16.458;2024-02-15T08:02:13;7.13;;;2.58;;
69310;SDS011;56430;48.154;16.458;2024-02-15T08:04:43;6.72;;;2.13;;
69310;SDS011;56430;48.154;16.458;2024-02-15T08:07:10;6.63;;;1.83;;
69310;SDS011;56430;48.154;16.458;2024-02-15T08:09:38;6.25;;;1.90;;
69310;SDS011;56430;48.154;16.458;2024-02-15T08:12:06;7.72;;;2.03;;
69310;SDS011;56430;48.154;16.458;2024-02-15T08:14:36;5.45;;;1.90;;
69310;SDS011;56430;48.154;16.458;2024-02-15T08:17:05;9.23;;;2.38;;
69310;SDS011;56430;48.154;16.458;2024-02-15T08:19:33;6.17;;;1.93;;
69310;SDS011;56430;48.154;16.458;2024-02-15T08:22:03;5.43;;;1.98;;
69310;SDS011;56430;48.154;16.458;2024-02-15T08:24:31;4.55;;;1.90;;
69310;SDS011;56430;48.154;16.458;2024-02-15T08:26:59;6.10;;;2.03;;
69310;SDS011;56430;48.154;16.458;2024-02-15T08:29:26;5.22;;;1.83;;
69310;SDS011;56430;48.154;16.458;2024-02-15T08:31:53;5.83;;;1.87;;
69310;SDS011;56430;48.154;16.458;2024-02-15T08:34:20;6.38;;;2.58;;
69310;SDS011;56430;48.154;16.458;2024-02-15T08:36:48;7.90;;;2.38;;
69310;SDS011;56430;48.154;16.458;2024-02-15T08:39:15;7.53;;;2.33;;
69310;SDS011;56430;48.154;16.458;2024-02-15T08:41:42;5.18;;;2.15;;
69310;SDS011;56430;48.154;16.458;2024-02-15T08:44:11;8.27;;;2.70;;
69310;SDS011;56430;48.154;16.458;2024-02-15T08:46:41;8.52;;;2.30;;
69310;SDS011;56430;48.154;16.458;2024-02-15T08:49:08;7.28;;;2.00;;
69310;SDS011;56430;48.154;16.458;2024-02-15T08:51:39;10.38;;;1.45;;
69310;SDS011;56430;48.154;16.458;2024-02-15T08:54:06;6.65;;;1.60;;
69310;SDS011;56430;48.154;16.458;2024-02-15T08:56:35;5.00;;;1.87;;
69310;SDS011;56430;48.154;16.458;2024-02-15T08:59:02;6.93;;;1.58;;
69310;SDS011;56430;48.154;16.458;2024-02-15T09:01:31;4.85;;;1.52;;
69310;SDS011;56430;48.154;16.458;2024-02-15T09:03:59;5.57;;;2.20;;
69310;SDS011;56430;48.154;16.458;2024-02-15T09:06:26;10.05;;;2.20;;
69310;SDS011;56430;48.154;16.458;2024-02-15T09:08:54;8.27;;;2.17;;
69310;SDS011;56430;48.154;16.458;2024-02-15T09:11:22;6.10;;;2.50;;
69310;SDS011;56430;48.154;16.458;2024-02-15T09:13:55;5.57;;;2.08;;
69310;SDS011;56430;48.154;16.458;2024-02-15T09:16:22;4.57;;;1.95;;
69310;SDS011;56430;48.154;16.458;2024-02-15T09:18:50;6.45;;;2.30;;
69310;SDS011;56430;48.154;16.458;2024-02-15T09:21:18;7.20;;;2.53;;
69310;SDS011;56430;48.154;16.458;2024-02-15T09:23:45;5.65;;;2.60;;
69310;SDS011;56430;48.154;16.458;2024-02-15T09:26:13;6.95;;;2.20;;
69310;SDS011;56430;48.154;16.458;2024-02-15T09:28:40;8.52;;;2.67;;
69310;SDS011;56430;48.154;16.458;2024-02-15T09:31:07;7.47;;;2.30;;
69310;SDS011;56430;48.154;16.458;2024-02-15T09:33:37;5.83;;;2.00;;
69310;SDS011;56430;48.154;16.458;2024-02-15T09:36:06;5.53;;;2.10;;
69310;SDS011;56430;48.154;16.458;2024-02-15T09:38:33;6.25;;;2.28;;
69310;SDS011;56430;48.154;16.458;2024-02-15T09:41:01;7.03;;;2.00;;
69310;SDS011;56430;48.154;16.458;2024-02-15T09:43:32;6.97;;;2.20;;
69310;SDS011;56430;48.154;16.458;2024-02-15T09:46:01;7.97;;;1.80;;
69310;SDS011;56430;48.154;16.458;2024-02-15T09:48:30;5.40;;;1.88;;
69310;SDS011;56430;48.154;16.458;2024-02-15T09:50:59;4.00;;;1.70;;
69310;SDS011;56430;48.154;16.458;2024-02-15T09:53:28;5.15;;;1.90;;
69310;SDS011;56430;48.154;16.458;2024-02-15T09:55:55;4.57;;;1.85;;
69310;SDS011;56430;48.154;16.458;2024-02-15T09:58:29;5.10;;;1.70;;
69310;SDS011;56430;48.154;16.458;2024-02-15T10:01:00;6.57;;;2.10;;
69310;SDS011;56430;48.154;16.458;2024-02-15T10:03:29;5.20;;;1.70;;
69310;SDS011;56430;48.154;16.458;2024-02-15T10:05:57;5.22;;;1.75;;
69310;SDS011;56430;48.154;16.458;2024-02-15T10:08:24;5.65;;;1.38;;
69310;SDS011;56430;48.154;16.458;2024-02-15T10:11:06;4.50;;;1.47;;
69310;SDS011;56430;48.154;16.458;2024-02-15T10:13:34;5.72;;;1.30;;
69310;SDS011;56430;48.154;16.458;2024-02-15T10:16:13;4.95;;;1.40;;
69310;SDS011;56430;48.154;16.458;2024-02-15T10:18:41;4.63;;;1.10;;
69310;SDS011;56430;48.154;16.458;2024-02-15T10:21:08;4.65;;;1.20;;
69310;SDS011;56430;48.154;16.458;2024-02-15T10:23:36;4.27;;;1.40;;
69310;SDS011;56430;48.154;16.458;2024-02-15T10:29:05;4.40;;;1.20;;
69310;SDS011;56430;48.154;16.458;2024-02-15T10:31:34;5.47;;;1.77;;
69310;SDS011;56430;48.154;16.458;2024-02-15T10:34:03;4.93;;;1.40;;
69310;SDS011;56430;48.154;16.458;2024-02-15T10:36:31;4.83;;;1.23;;
69310;SDS011;56430;48.154;16.458;2024-02-15T10:39:12;4.72;;;1.13;;
69310;SDS011;56430;48.154;16.458;2024-02-15T10:41:43;5.20;;;2.17;;
69310;SDS011;56430;48.154;16.458;2024-02-15T10:44:14;3.67;;;1.13;;
69310;SDS011;56430;48.154;16.458;2024-02-15T10:46:43;2.83;;;1.10;;
69310;SDS011;56430;48.154;16.458;2024-02-15T10:49:12;3.10;;;1.27;;
69310;SDS011;56430;48.154;16.458;2024-02-15T10:51:42;5.10;;;1.02;;
69310;SDS011;56430;48.154;16.458;2024-02-15T10:54:11;4.45;;;1.15;;
69310;SDS011;56430;48.154;16.458;2024-02-15T10:56:42;2.85;;;0.90;;
69310;SDS011;56430;48.154;16.458;2024-02-15T10:59:16;5.20;;;1.05;;
69310;SDS011;56430;48.154;16.458;2024-02-15T11:01:44;2.97;;;0.80;;
69310;SDS011;56430;48.154;16.458;2024-02-15T11:04:13;4.53;;;1.20;;
69310;SDS011;56430;48.154;16.458;2024-02-15T11:06:42;3.35;;;0.95;;
69310;SDS011;56430;48.154;16.458;2024-02-15T11:09:10;7.88;;;2.47;;
69310;SDS011;56430;48.154;16.458;2024-02-15T11:11:39;4.78;;;1.30;;
69310;SDS011;56430;48.154;16.458;2024-02-15T11:14:24;4.50;;;1.30;;
69310;SDS011;56430;48.154;16.458;2024-02-15T11:16:54;4.20;;;1.65;;
69310;SDS011;56430;48.154;16.458;2024-02-15T11:19:42;3.63;;;1.45;;
69310;SDS011;56430;48.154;16.458;2024-02-15T11:22:13;3.22;;;1.70;;
69310;SDS011;56430;48.154;16.458;2024-02-15T11:24:47;4.03;;;1.80;;
69310;SDS011;56430;48.154;16.458;2024-02-15T11:27:24;4.80;;;2.13;;
69310;SDS011;56430;48.154;16.458;2024-02-15T11:29:56;5.70;;;2.60;;
69310;SDS011;56430;48.154;16.458;2024-02-15T11:32:35;6.63;;;2.70;;
69310;SDS011;56430;48.154;16.458;2024-02-15T11:35:05;7.63;;;2.95;;
69310;SDS011;56430;48.154;16.458;2024-02-15T11:37:50;6.18;;;2.50;;
69310;SDS011;56430;48.154;16.458;2024-02-15T11:43:47;5.35;;;2.72;;
69310;SDS011;56430;48.154;16.458;2024-02-15T11:46:23;6.85;;;3.40;;
69310;SDS011;56430;48.154;16.458;2024-02-15T11:48:52;7.22;;;3.67;;
69310;SDS011;56430;48.154;16.458;2024-02-15T11:51:25;5.95;;;3.30;;
69310;SDS011;56430;48.154;16.458;2024-02-15T11:54:05;6.63;;;3.23;;
69310;SDS011;56430;48.154;16.458;2024-02-15T11:56:49;7.63;;;3.00;;
69310;SDS011;56430;48.154;16.458;2024-02-15T11:59:30;6.68;;;3.20;;
69310;SDS011;56430;48.154;16.458;2024-02-15T12:02:09;7.90;;;3.67;;
69310;SDS011;56430;48.154;16.458;2024-02-15T12:04:54;4.63;;;2.63;;
69310;SDS011;56430;48.154;16.458;2024-02-15T12:07:38;6.53;;;3.10;;
69310;SDS011;56430;48.154;16.458;2024-02-15T12:10:23;6.13;;;3.28;;
69310;SDS011;56430;48.154;16.458;2024-02-15T12:13:09;6.28;;;3.10;;
69310;SDS011;56430;48.154;16.458;2024-02-15T12:15:56;6.80;;;3.30;;
69310;SDS011;56430;48.154;16.458;2024-02-15T12:18:43;6.90;;;3.67;;
69310;SDS011;56430;48.154;16.458;2024-02-15T12:21:14;7.13;;;3.30;;
69310;SDS011;56430;48.154;16.458;2024-02-15T12:23:43;6.95;;;3.53;;
69310;SDS011;56430;48.154;16.458;2024-02-15T12:26:11;6.20;;;3.13;;
69310;SDS011;56430;48.154;16.458;2024-02-15T12:28:40;7.60;;;3.00;;
69310;SDS011;56430;48.154;16.458;2024-02-15T12:31:09;6.88;;;3.45;;
69310;SDS011;56430;48.154;16.458;2024-02-15T12:33:39;6.70;;;3.43;;
69310;SDS011;56430;48.154;16.458;2024-02-15T12:36:10;10.70;;;3.33;;
69310;SDS011;56430;48.154;16.458;2024-02-15T12:38:37;6.03;;;3.15;;
69310;SDS011;56430;48.154;16.458;2024-02-15T12:41:17;5.75;;;3.13;;
69310;SDS011;56430;48.154;16.458;2024-02-15T12:43:52;5.63;;;2.80;;
69310;SDS011;56430;48.154;16.458;2024-02-15T12:46:19;9.17;;;2.77;;
69310;SDS011;56430;48.154;16.458;2024-02-15T12:48:47;6.93;;;3.17;;
69310;SDS011;56430;48.154;16.458;2024-02-15T12:51:16;7.70;;;3.13;;
69310;SDS011;56430;48.154;16.458;2024-02-15T12:53:44;5.55;;;2.60;;
69310;SDS011;56430;48.154;16.458;2024-02-15T12:56:19;16.33;;;3.10;;
69310;SDS011;56430;48.154;16.458;2024-02-15T12:58:46;7.30;;;2.90;;
69310;SDS011;56430;48.154;16.458;2024-02-15T13:01:14;5.80;;;3.00;;
69310;SDS011;56430;48.154;16.458;2024-02-15T13:03:41;6.55;;;2.80;;
69310;SDS011;56430;48.154;16.458;2024-02-15T13:06:09;6.28;;;3.03;;
69310;SDS011;56430;48.154;16.458;2024-02-15T13:08:37;8.10;;;2.90;;
69310;SDS011;56430;48.154;16.458;2024-02-15T13:11:05;5.40;;;3.10;;
69310;SDS011;56430;48.154;16.458;2024-02-15T13:13:34;5.28;;;2.70;;
69310;SDS011;56430;48.154;16.458;2024-02-15T13:16:01;6.47;;;2.90;;
69310;SDS011;56430;48.154;16.458;2024-02-15T13:18:28;5.75;;;3.08;;
69310;SDS011;56430;48.154;16.458;2024-02-15T13:20:56;6.45;;;2.85;;
69310;SDS011;56430;48.154;16.458;2024-02-15T13:23:23;6.40;;;3.20;;
69310;SDS011;56430;48.154;16.458;2024-02-15T13:25:52;8.23;;;2.50;;
69310;SDS011;56430;48.154;16.458;2024-02-15T13:28:19;7.78;;;2.70;;
69310;SDS011;56430;48.154;16.458;2024-02-15T13:30:49;6.50;;;2.70;;
69310;SDS011;56430;48.154;16.458;2024-02-15T13:33:19;6.85;;;2.80;;
69310;SDS011;56430;48.154;16.458;2024-02-15T13:35:47;4.47;;;2.40;;
69310;SDS011;56430;48.154;16.458;2024-02-15T13:38:15;5.28;;;2.95;;
69310;SDS011;56430;48.154;16.458;2024-02-15T13:40:50;7.35;;;3.40;;
69310;SDS011;56430;48.154;16.458;2024-02-15T13:43:21;5.45;;;3.33;;
69310;SDS011;56430;48.154;16.458;2024-02-15T13:45:48;5.78;;;2.88;;
69310;SDS011;56430;48.154;16.458;2024-02-15T13:48:18;5.87;;;2.90;;
69310;SDS011;56430;48.154;16.458;2024-02-15T13:50:51;7.10;;;3.03;;
69310;SDS011;56430;48.154;16.458;2024-02-15T13:53:18;6.43;;;2.92;;
69310;SDS011;56430;48.154;16.458;2024-02-15T13:55:45;6.65;;;3.10;;
69310;SDS011;56430;48.154;16.458;2024-02-15T13:58:14;6.50;;;3.55;;
69310;SDS011;56430;48.154;16.458;2024-02-15T14:00:41;9.50;;;3.40;;
69310;SDS011;56430;48.154;16.458;2024-02-15T14:03:10;10.25;;;3.25;;
69310;SDS011;56430;48.154;16.458;2024-02-15T14:05:37;8.02;;;3.38;;
69310;SDS011;56430;48.154;16.458;2024-02-15T14:08:05;7.75;;;2.70;;
69310;SDS011;56430;48.154;16.458;2024-02-15T14:10:34;6.07;;;2.83;;
69310;SDS011;56430;48.154;16.458;2024-02-15T14:13:02;8.33;;;2.50;;
69310;SDS011;56430;48.154;16.458;2024-02-15T14:15:32;5.40;;;2.60;;
69310;SDS011;56430;48.154;16.458;2024-02-15T14:18:02;7.60;;;3.50;;
69310;SDS011;56430;48.154;16.458;2024-02-15T14:20:30;7.53;;;2.90;;
69310;SDS011;56430;48.154;16.458;2024-02-15T14:22:58;4.85;;;2.60;;
69310;SDS011;56430;48.154;16.458;2024-02-15T14:25:30;7.90;;;3.07;;
69310;SDS011;56430;48.154;16.458;2024-02-15T14:27:58;5.28;;;2.70;;
69310;SDS011;56430;48.154;16.458;2024-02-15T14:30:26;5.97;;;2.33;;
69310;SDS011;56430;48.154;16.458;2024-02-15T14:33:12;8.15;;;2.38;;
69310;SDS011;56430;48.154;16.458;2024-02-15T14:35:41;7.82;;;2.47;;
69310;SDS011;56430;48.154;16.458;2024-02-15T14:38:09;6.80;;;2.87;;
69310;SDS011;56430;48.154;16.458;2024-02-15T14:40:38;9.55;;;4.25;;
69310;SDS011;56430;48.154;16.458;2024-02-15T14:43:06;8.60;;;3.80;;
69310;SDS011;56430;48.154;16.458;2024-02-15T14:45:34;9.55;;;4.70;;
69310;SDS011;56430;48.154;16.458;2024-02-15T14:48:03;9.85;;;5.43;;
69310;SDS011;56430;48.154;16.458;2024-02-15T14:50:32;10.53;;;5.00;;
69310;SDS011;56430;48.154;16.458;2024-02-15T14:53:00;9.07;;;5.15;;